createdAt,value
2018-12-05T00:02:16.848Z,205.97
2018-12-05T00:04:45.915Z,248.10
2018-12-05T00:07:14.149Z,225.37
2018-12-05T00:09:43.351Z,227.37
2018-12-05T00:12:12.169Z,232.27
2018-12-05T00:14:41.226Z,223.27
2018-12-05T00:17:10.493Z,253.97
2018-12-05T00:19:38.398Z,261.83
2018-12-05T00:22:06.398Z,234.07
2018-12-05T00:24:34.475Z,250.63
2018-12-05T00:27:02.840Z,305.63
2018-12-05T00:29:30.837Z,278.20
2018-12-05T00:31:58.953Z,289.90
2018-12-05T00:34:27.562Z,308.57
2018-12-05T00:36:56.845Z,286.50
2018-12-05T00:39:25.321Z,274.40
2018-12-05T00:41:53.630Z,268.00
2018-12-05T00:44:21.685Z,257.17
2018-12-05T00:46:50.782Z,273.87
2018-12-05T00:49:23.591Z,285.43
2018-12-05T00:51:53.078Z,278.93
2018-12-05T00:54:21.294Z,256.10
2018-12-05T00:56:49.362Z,323.47
2018-12-05T00:59:17.689Z,284.63
2018-12-05T01:01:46.027Z,251.90
2018-12-05T01:04:14.810Z,285.63
2018-12-05T01:06:42.859Z,270.87
2018-12-05T01:09:13.212Z,268.07
2018-12-05T01:11:43.028Z,280.47
2018-12-05T01:14:10.992Z,269.33
2018-12-05T01:16:39.023Z,267.33
2018-12-05T01:19:08.988Z,271.83
2018-12-05T01:21:39.678Z,262.43
2018-12-05T01:24:07.810Z,257.63
2018-12-05T01:26:35.892Z,258.20
2018-12-05T01:29:04.708Z,282.87
2018-12-05T01:31:33.278Z,282.37
2018-12-05T01:34:03.430Z,284.77
2018-12-05T01:36:31.425Z,276.67
2018-12-05T01:38:59.339Z,275.37
2018-12-05T01:41:27.503Z,302.80
2018-12-05T01:43:55.644Z,298.73
2018-12-05T01:46:23.719Z,294.80
2018-12-05T01:48:53.168Z,224.03
2018-12-05T01:51:24.036Z,341.83
2018-12-05T01:53:55.085Z,321.73
2018-12-05T01:56:27.129Z,296.17
2018-12-05T01:58:56.316Z,275.80
2018-12-05T02:01:25.083Z,273.40
2018-12-05T02:03:53.707Z,292.63
2018-12-05T02:06:23.054Z,287.10
2018-12-05T02:08:54.039Z,297.40
2018-12-05T02:11:24.305Z,256.93
2018-12-05T02:13:52.710Z,223.50
2018-12-05T02:16:20.933Z,309.87
2018-12-05T02:18:49.650Z,289.87
2018-12-05T02:21:19.291Z,281.97
2018-12-05T02:23:47.691Z,297.10
2018-12-05T02:26:15.934Z,315.80
2018-12-05T02:28:44.105Z,282.53
2018-12-05T02:31:12.307Z,352.40
2018-12-05T02:33:43.047Z,310.93
2018-12-05T02:36:13.174Z,278.27
2018-12-05T02:38:41.178Z,285.70
2018-12-05T02:41:09.726Z,316.50
2018-12-05T02:43:37.827Z,304.17
2018-12-05T02:46:05.991Z,322.27
2018-12-05T02:48:34.040Z,311.67
2018-12-05T02:51:02.147Z,306.87
2018-12-05T02:53:30.100Z,323.80
2018-12-05T02:55:58.059Z,269.50
2018-12-05T02:58:26.591Z,312.80
2018-12-05T03:00:57.433Z,255.70
2018-12-05T03:03:25.389Z,257.27
2018-12-05T03:05:53.465Z,289.87
2018-12-05T03:08:21.450Z,285.37
2018-12-05T03:10:49.449Z,284.43
2018-12-05T03:13:17.391Z,285.80
2018-12-05T03:15:45.389Z,292.13
2018-12-05T03:18:13.806Z,296.03
2018-12-05T03:20:45.531Z,288.37
2018-12-05T03:23:14.312Z,320.10
2018-12-05T03:25:42.440Z,317.00
2018-12-05T03:28:10.496Z,316.63
2018-12-05T03:30:38.623Z,294.63
2018-12-05T03:33:06.602Z,302.70
2018-12-05T03:35:38.711Z,323.57
2018-12-05T03:38:07.120Z,290.00
2018-12-05T03:40:35.123Z,295.30
2018-12-05T03:43:03.382Z,300.50
2018-12-05T03:45:31.776Z,299.63
2018-12-05T03:47:59.964Z,265.53
2018-12-05T03:50:28.147Z,291.47
2018-12-05T03:52:56.342Z,281.13
2018-12-05T03:55:26.344Z,284.10
2018-12-05T03:57:56.020Z,300.77
2018-12-05T04:00:26.951Z,301.80
2018-12-05T04:02:55.717Z,288.23
2018-12-05T04:05:24.168Z,284.23
2018-12-05T04:07:52.568Z,313.03
2018-12-05T04:10:21.998Z,307.87
2018-12-05T04:12:50.288Z,322.47
2018-12-05T04:15:18.535Z,310.47
2018-12-05T04:17:46.476Z,342.50
2018-12-05T04:20:15.157Z,329.10
2018-12-05T04:22:45.176Z,326.97
2018-12-05T04:25:13.224Z,353.97
2018-12-05T04:27:42.725Z,320.47
2018-12-05T04:30:12.887Z,355.73
2018-12-05T04:32:40.875Z,343.37
2018-12-05T04:35:09.028Z,277.87
2018-12-05T04:37:37.198Z,323.53
2018-12-05T04:40:05.500Z,252.43
2018-12-05T04:42:34.036Z,311.63
2018-12-05T04:45:03.188Z,308.17
2018-12-05T04:47:33.504Z,297.47
2018-12-05T04:50:03.299Z,293.40
2018-12-05T04:52:32.074Z,304.27
2018-12-05T04:55:00.164Z,319.90
2018-12-05T04:57:28.152Z,309.43
2018-12-05T04:59:56.312Z,311.73
2018-12-05T05:02:24.710Z,272.80
2018-12-05T05:04:52.927Z,289.10
2018-12-05T05:07:22.249Z,316.57
2018-12-05T05:09:51.924Z,315.40
2018-12-05T05:12:22.511Z,292.97
2018-12-05T05:14:50.992Z,285.57
2018-12-05T05:17:21.158Z,248.33
2018-12-05T05:19:49.183Z,312.43
2018-12-05T05:22:17.268Z,297.50
2018-12-05T05:24:45.366Z,309.43
2018-12-05T05:27:13.456Z,303.57
2018-12-05T05:29:42.524Z,302.43
2018-12-05T05:32:10.583Z,283.63
2018-12-05T05:34:38.889Z,314.53
2018-12-05T05:37:07.563Z,291.43
2018-12-05T05:39:35.607Z,276.33
2018-12-05T05:42:03.603Z,302.47
2018-12-05T05:44:32.244Z,290.83
2018-12-05T05:47:00.534Z,285.53
2018-12-05T05:49:29.632Z,293.03
2018-12-05T05:51:57.760Z,290.57
2018-12-05T05:54:25.942Z,253.73
2018-12-05T05:56:54.795Z,328.23
2018-12-05T05:59:22.998Z,303.73
2018-12-05T06:01:51.313Z,272.07
2018-12-05T06:04:19.845Z,259.37
2018-12-05T06:06:47.905Z,242.40
2018-12-05T06:09:15.842Z,214.47
2018-12-05T06:11:43.840Z,177.77
2018-12-05T06:14:12.339Z,139.73
2018-12-05T06:16:40.347Z,78.50
2018-12-05T06:19:08.465Z,45.10
2018-12-05T06:21:36.497Z,35.10
2018-12-05T06:24:04.507Z,32.57
2018-12-05T06:26:36.898Z,31.57
2018-12-05T06:29:04.908Z,31.03
2018-12-05T06:31:32.985Z,28.93
2018-12-05T06:34:01.109Z,26.90
2018-12-05T06:36:29.259Z,23.27
2018-12-05T06:38:59.292Z,20.03
2018-12-05T06:41:27.248Z,20.90
2018-12-05T06:43:55.224Z,19.47
2018-12-05T06:46:23.191Z,21.63
2018-12-05T06:48:52.178Z,19.30
2018-12-05T06:51:20.521Z,17.50
2018-12-05T06:53:48.594Z,19.33
2018-12-05T06:56:17.719Z,16.33
2018-12-05T06:58:45.780Z,16.60
2018-12-05T07:01:13.931Z,17.90
2018-12-05T07:03:42.010Z,13.80
2018-12-05T07:06:10.707Z,14.50
2018-12-05T07:08:38.717Z,15.37
2018-12-05T07:11:07.293Z,13.90
2018-12-05T07:13:35.229Z,13.43
2018-12-05T07:16:03.452Z,11.97
2018-12-05T07:18:31.470Z,12.60
2018-12-05T07:21:01.652Z,12.97
2018-12-05T07:23:29.885Z,13.70
2018-12-05T07:25:59.312Z,15.83
2018-12-05T07:28:31.679Z,14.40
2018-12-05T07:31:01.941Z,12.73
2018-12-05T07:50:27.935Z,10.60
2018-12-05T07:52:56.191Z,11.17
2018-12-05T07:55:24.490Z,8.87
2018-12-05T07:57:52.857Z,8.53
2018-12-05T08:00:20.857Z,9.50
2018-12-05T08:02:48.908Z,8.83
2018-12-05T08:05:16.956Z,11.00
2018-12-05T08:07:44.887Z,9.57
2018-12-05T08:10:13.641Z,8.20
2018-12-05T08:12:41.665Z,8.63
2018-12-05T08:15:09.881Z,6.00
2018-12-05T08:17:38.179Z,9.03
2018-12-05T08:20:06.516Z,7.90
2018-12-05T08:23:12.636Z,8.53
2018-12-05T08:25:41.101Z,8.47
2018-12-05T08:31:15.797Z,8.67
2018-12-05T08:34:26.932Z,7.30
2018-12-05T08:36:58.866Z,8.13
2018-12-05T08:39:43.257Z,8.40
2018-12-05T08:44:58.471Z,9.70
2018-12-05T08:47:33.630Z,8.37
2018-12-05T08:50:06.779Z,8.70
2018-12-05T08:52:37.866Z,8.33
2018-12-05T08:55:12.323Z,7.73
2018-12-05T08:57:43.265Z,13.90
2018-12-05T09:00:15.569Z,10.40
2018-12-05T09:02:45.074Z,11.77
2018-12-05T09:05:18.661Z,10.03
2018-12-05T09:07:58.407Z,11.90
2018-12-05T09:11:11.477Z,11.77
2018-12-05T09:13:47.238Z,10.70
2018-12-05T09:16:16.045Z,11.50
2018-12-05T09:18:44.481Z,10.23
2018-12-05T09:24:11.053Z,6.20
2018-12-05T09:27:16.838Z,7.07
2018-12-05T09:29:53.129Z,10.23
2018-12-05T09:32:29.339Z,7.50
2018-12-05T09:34:59.824Z,7.70
2018-12-05T09:37:39.122Z,4.73
2018-12-05T09:44:18.396Z,8.23
2018-12-05T09:46:49.809Z,7.33
2018-12-05T09:49:18.034Z,7.50
2018-12-05T09:51:49.031Z,6.47
2018-12-05T09:54:22.544Z,5.60
2018-12-05T10:00:10.740Z,5.20
2018-12-05T10:02:40.330Z,5.80
2018-12-05T10:05:09.005Z,6.00
2018-12-05T10:07:37.304Z,5.57
2018-12-05T10:10:08.303Z,7.27
2018-12-05T10:12:37.130Z,6.00
2018-12-05T10:15:06.200Z,6.57
2018-12-05T10:17:36.160Z,6.37
2018-12-05T10:20:04.823Z,6.20
2018-12-05T10:22:34.327Z,6.57
2018-12-05T10:25:02.676Z,6.90
2018-12-05T10:27:30.829Z,8.63
2018-12-05T10:29:58.987Z,7.40
2018-12-05T10:32:27.215Z,7.47
2018-12-05T10:34:57.497Z,7.80
2018-12-05T10:37:25.566Z,6.67
2018-12-05T10:39:53.825Z,7.47
2018-12-05T10:42:22.080Z,7.77
2018-12-05T10:44:50.101Z,8.33
2018-12-05T10:47:18.265Z,11.20
2018-12-05T10:49:47.067Z,11.90
2018-12-05T10:52:15.185Z,10.63
2018-12-05T10:54:43.844Z,9.67
2018-12-05T10:57:13.119Z,9.93
2018-12-05T10:59:41.179Z,10.07
2018-12-05T11:02:27.899Z,9.80
2018-12-05T11:05:01.681Z,12.00
2018-12-05T11:07:40.803Z,11.77
2018-12-05T11:13:58.521Z,10.57
2018-12-05T11:16:31.977Z,11.10
2018-12-05T11:19:07.653Z,10.63
2018-12-05T11:21:41.509Z,9.37
2018-12-05T11:24:37.768Z,9.63
2018-12-05T11:27:06.004Z,11.37
2018-12-05T11:29:34.149Z,8.63
2018-12-05T11:32:02.416Z,7.83
2018-12-05T11:34:31.018Z,11.00
2018-12-05T11:36:59.053Z,9.37
2018-12-05T11:39:31.313Z,8.77
2018-12-05T11:42:02.156Z,7.40
2018-12-05T11:44:30.345Z,8.27
2018-12-05T11:47:00.309Z,7.50
2018-12-05T11:49:32.625Z,6.60
2018-12-05T11:52:08.493Z,9.47
2018-12-05T11:54:50.791Z,9.17
2018-12-05T11:57:20.547Z,7.53
2018-12-05T11:59:50.280Z,7.40
2018-12-05T12:02:22.489Z,7.97
2018-12-05T12:04:49.994Z,8.17
2018-12-05T12:07:25.158Z,7.40
2018-12-05T12:09:53.324Z,6.60
2018-12-05T12:13:24.053Z,6.70
2018-12-05T12:15:55.397Z,6.93
2018-12-05T12:18:23.720Z,6.73
2018-12-05T12:20:51.959Z,7.23
2018-12-05T12:23:20.517Z,7.47
2018-12-05T12:25:48.705Z,9.05
2018-12-05T12:28:17.136Z,7.80
2018-12-05T12:30:46.568Z,7.13
2018-12-05T12:33:22.278Z,7.40
2018-12-05T12:35:50.770Z,8.97
2018-12-05T12:38:19.063Z,8.20
2018-12-05T12:40:47.921Z,9.23
2018-12-05T12:43:15.982Z,6.10
2018-12-05T12:45:44.260Z,6.00
2018-12-05T12:48:19.250Z,6.83
2018-12-05T12:50:48.669Z,5.97
2018-12-05T12:53:17.358Z,6.63
2018-12-05T12:55:45.661Z,5.47
2018-12-05T12:58:16.089Z,6.73
2018-12-05T13:00:49.694Z,6.50
2018-12-05T13:03:18.446Z,6.57
2018-12-05T13:05:48.358Z,6.90
2018-12-05T13:08:16.532Z,6.90
2018-12-05T13:10:44.592Z,8.80
2018-12-05T13:13:12.504Z,7.40
2018-12-05T13:15:40.399Z,7.43
2018-12-05T13:18:13.441Z,6.90
2018-12-05T13:20:41.575Z,7.17
2018-12-05T13:23:09.704Z,6.10
2018-12-05T13:25:41.000Z,6.47
2018-12-05T13:28:09.158Z,7.80
2018-12-05T13:30:37.245Z,7.23
2018-12-05T13:33:10.427Z,8.50
2018-12-05T13:35:39.123Z,7.87
2018-12-05T13:38:07.220Z,6.83
2018-12-05T13:40:35.605Z,7.20
2018-12-05T13:43:05.713Z,7.60
2018-12-05T13:45:35.716Z,9.33
2018-12-05T13:48:04.610Z,8.93
2018-12-05T13:50:33.536Z,9.70
2018-12-05T13:53:10.343Z,7.37
2018-12-05T13:55:45.593Z,8.17
2018-12-05T13:58:13.705Z,8.40
2018-12-05T14:00:41.803Z,7.80
2018-12-05T14:03:10.134Z,10.27
2018-12-05T14:05:38.140Z,12.80
2018-12-05T14:08:06.271Z,9.93
2018-12-05T14:10:34.894Z,10.13
2018-12-05T14:13:03.388Z,12.27
2018-12-05T14:15:34.742Z,12.97
2018-12-05T14:18:04.367Z,11.27
2018-12-05T14:20:33.667Z,12.23
2018-12-05T14:23:02.112Z,10.63
2018-12-05T14:25:30.303Z,10.23
2018-12-05T14:31:16.475Z,11.00
2018-12-05T14:33:45.672Z,17.67
2018-12-05T14:36:14.247Z,10.10
2018-12-05T14:38:43.288Z,12.80
2018-12-05T14:41:11.428Z,11.27
2018-12-05T14:43:39.506Z,10.63
2018-12-05T14:46:08.369Z,11.40
2018-12-05T14:48:37.365Z,10.33
2018-12-05T14:51:05.344Z,12.97
2018-12-05T14:53:33.385Z,12.97
2018-12-05T14:56:01.268Z,9.80
2018-12-05T14:58:30.081Z,10.90
2018-12-05T15:01:02.917Z,11.67
2018-12-05T15:03:31.060Z,13.10
2018-12-05T15:05:59.205Z,15.60
2018-12-05T15:08:27.276Z,12.97
2018-12-05T15:10:55.540Z,10.47
2018-12-05T15:13:23.559Z,9.97
2018-12-05T15:16:08.665Z,11.37
2018-12-05T15:18:37.159Z,13.03
2018-12-05T15:21:06.181Z,11.77
2018-12-05T15:23:35.331Z,13.63
2018-12-05T15:26:03.470Z,14.93
2018-12-05T15:28:31.632Z,10.80
2018-12-05T15:34:26.351Z,11.47
2018-12-05T15:36:59.632Z,14.13
2018-12-05T15:39:31.886Z,15.27
2018-12-05T15:42:02.031Z,11.73
2018-12-05T15:44:33.690Z,13.63
2018-12-05T15:47:02.684Z,12.20
2018-12-05T15:49:45.147Z,12.83
2018-12-05T15:52:18.670Z,15.90
2018-12-05T15:54:50.118Z,12.67
2018-12-05T15:57:36.128Z,14.47
2018-12-05T16:00:16.877Z,13.93
2018-12-05T16:02:46.444Z,14.73
2018-12-05T16:05:20.362Z,14.03
2018-12-05T16:08:06.018Z,13.47
2018-12-05T16:10:39.146Z,15.30
2018-12-05T16:13:08.490Z,12.93
2018-12-05T16:15:52.012Z,14.27
2018-12-05T16:18:22.303Z,9.80
2018-12-05T16:20:58.392Z,12.10
2018-12-05T16:23:34.481Z,13.53
2018-12-05T16:26:16.852Z,13.13
2018-12-05T16:28:45.219Z,12.03
2018-12-05T16:31:29.493Z,12.57
2018-12-05T16:37:13.849Z,12.63
2018-12-05T16:39:58.032Z,13.03
2018-12-05T16:42:33.275Z,11.20
2018-12-05T16:52:04.672Z,11.37
2018-12-05T16:54:51.363Z,14.87
2018-12-05T16:57:27.928Z,14.10
2018-12-05T17:04:04.408Z,14.07
2018-12-05T17:09:26.159Z,11.87
2018-12-05T17:11:55.770Z,14.53
2018-12-05T17:14:27.054Z,11.73
2018-12-05T17:17:03.995Z,13.43
2018-12-05T17:19:36.302Z,16.67
2018-12-05T17:22:12.225Z,16.20
2018-12-05T17:24:42.796Z,14.30
2018-12-05T17:27:20.301Z,13.03
2018-12-05T17:29:56.426Z,12.57
2018-12-05T17:32:28.073Z,14.27
2018-12-05T17:34:58.511Z,11.33
2018-12-05T17:37:32.751Z,15.50
2018-12-05T17:40:03.172Z,12.33
2018-12-05T17:42:39.828Z,13.80
2018-12-05T17:45:10.762Z,26.33
2018-12-05T17:47:40.750Z,14.67
2018-12-05T17:50:11.541Z,14.67
2018-12-05T17:52:42.247Z,12.83
2018-12-05T17:55:11.653Z,10.90
2018-12-05T17:57:39.864Z,10.20
2018-12-05T18:00:12.677Z,27.95
2018-12-05T18:02:50.558Z,12.73
2018-12-05T18:05:23.857Z,13.77
2018-12-05T18:07:52.121Z,13.50
2018-12-05T18:10:23.745Z,11.35
2018-12-05T18:12:53.216Z,14.50
2018-12-05T18:15:24.042Z,12.63
2018-12-05T18:17:57.377Z,10.60
2018-12-05T18:20:28.744Z,14.30
2018-12-05T18:23:04.738Z,14.43
2018-12-05T18:25:38.922Z,14.70
2018-12-05T18:28:09.981Z,12.40
2018-12-05T18:30:59.303Z,10.33
2018-12-05T18:33:28.405Z,13.87
2018-12-05T18:35:58.208Z,12.43
2018-12-05T18:41:11.354Z,13.73
2018-12-05T18:43:39.535Z,12.93
2018-12-05T18:46:09.747Z,14.10
2018-12-05T18:48:45.466Z,10.20
2018-12-05T18:51:18.200Z,13.33
2018-12-05T18:53:46.602Z,14.50
2018-12-05T18:56:18.027Z,13.57
2018-12-05T18:59:00.419Z,13.73
2018-12-05T19:01:28.699Z,14.57
2018-12-05T19:04:00.504Z,13.53
2018-12-05T19:06:30.110Z,13.20
2018-12-05T19:08:58.366Z,11.30
2018-12-05T19:11:45.917Z,12.93
2018-12-05T19:14:32.820Z,17.93
2018-12-05T19:17:05.836Z,14.35
2018-12-05T19:24:16.503Z,20.40
2018-12-05T19:26:45.310Z,11.87
2018-12-05T19:29:13.865Z,14.73
2018-12-05T19:31:41.821Z,11.93
2018-12-05T19:34:09.813Z,17.47
2018-12-05T19:36:37.832Z,15.80
2018-12-05T19:39:07.648Z,12.13
2018-12-05T19:41:36.247Z,13.33
2018-12-05T19:44:05.396Z,10.90
2018-12-05T19:46:33.696Z,11.30
2018-12-05T19:49:02.933Z,15.97
2018-12-05T19:51:31.139Z,12.00
2018-12-05T19:53:59.317Z,12.53
2018-12-05T19:56:33.386Z,12.60
2018-12-05T19:59:01.386Z,11.80
2018-12-05T20:01:29.414Z,10.40
2018-12-05T20:03:59.310Z,13.60
2018-12-05T20:06:27.279Z,13.87
2018-12-05T20:08:55.464Z,19.50
2018-12-05T20:11:23.485Z,16.03
2018-12-05T20:13:51.605Z,16.53
2018-12-05T20:16:19.865Z,17.60
2018-12-05T20:18:48.800Z,12.70
2018-12-05T20:21:16.750Z,13.23
2018-12-05T20:23:44.814Z,16.77
2018-12-05T20:26:13.031Z,13.93
2018-12-05T20:28:45.165Z,13.40
2018-12-05T20:31:13.207Z,12.17
2018-12-05T20:33:41.180Z,14.37
2018-12-05T20:36:09.258Z,16.23
2018-12-05T20:38:37.517Z,14.50
2018-12-05T20:41:07.550Z,12.33
2018-12-05T20:43:35.728Z,14.23
2018-12-05T20:46:04.708Z,13.33
2018-12-05T20:48:32.916Z,15.43
2018-12-05T20:51:01.260Z,11.90
2018-12-05T20:53:29.920Z,15.67
2018-12-05T20:55:57.926Z,13.37
2018-12-05T20:58:25.909Z,16.07
2018-12-05T21:00:53.920Z,13.17
2018-12-05T21:03:21.949Z,10.73
2018-12-05T21:05:49.961Z,13.33
2018-12-05T21:08:18.011Z,14.33
2018-12-05T21:10:46.055Z,14.07
2018-12-05T21:16:34.683Z,13.93
2018-12-05T21:19:05.016Z,16.60
2018-12-05T21:21:33.813Z,16.73
2018-12-05T21:24:02.596Z,15.70
2018-12-05T21:26:37.071Z,13.57
2018-12-05T21:29:05.392Z,19.43
2018-12-05T21:31:35.640Z,14.07
2018-12-05T21:34:03.805Z,14.50
2018-12-05T21:36:31.707Z,12.97
2018-12-05T21:38:59.725Z,18.13
2018-12-05T21:41:27.762Z,14.40
2018-12-05T21:43:55.938Z,13.87
2018-12-05T21:46:26.962Z,17.10
2018-12-05T21:48:55.203Z,14.17
2018-12-05T21:51:24.311Z,13.27
2018-12-05T21:53:52.325Z,16.53
2018-12-05T21:56:21.420Z,12.70
2018-12-05T21:58:49.709Z,12.87
2018-12-05T22:01:17.957Z,14.87
2018-12-05T22:03:46.679Z,15.30
2018-12-05T22:06:14.812Z,11.33
2018-12-05T22:08:45.416Z,17.40
2018-12-05T22:11:15.669Z,15.07
2018-12-05T22:13:45.529Z,13.20
2018-12-05T22:16:13.772Z,11.50
2018-12-05T22:18:42.146Z,12.93
2018-12-05T22:21:10.215Z,12.90
2018-12-05T22:23:38.116Z,15.90
2018-12-05T22:26:06.104Z,14.97
2018-12-05T22:28:34.113Z,14.57
2018-12-05T22:31:02.737Z,14.10
2018-12-05T22:33:31.999Z,12.73
2018-12-05T22:36:00.212Z,13.57
2018-12-05T22:38:29.844Z,14.43
2018-12-05T22:40:58.583Z,13.37
2018-12-05T22:43:26.921Z,14.27
2018-12-05T22:45:54.903Z,15.53
2018-12-05T22:48:22.904Z,12.60
2018-12-05T22:50:50.988Z,15.07
2018-12-05T22:53:18.961Z,14.23
2018-12-05T22:55:47.003Z,12.50
2018-12-05T22:58:15.012Z,12.33
2018-12-05T23:00:47.669Z,15.07
2018-12-05T23:03:15.713Z,12.17
2018-12-05T23:05:43.854Z,13.77
2018-12-05T23:08:11.856Z,12.17
2018-12-05T23:10:39.949Z,15.17
2018-12-05T23:13:08.548Z,12.33
2018-12-05T23:15:36.496Z,12.10
2018-12-05T23:18:04.696Z,14.37
2018-12-05T23:20:32.820Z,13.35
2018-12-05T23:23:00.896Z,12.37
2018-12-05T23:25:29.050Z,13.97
2018-12-05T23:27:57.335Z,16.43
2018-12-05T23:30:26.670Z,12.83
2018-12-05T23:32:54.855Z,11.07
2018-12-05T23:35:23.856Z,12.93
2018-12-05T23:37:51.855Z,11.03
2018-12-05T23:40:20.035Z,11.33
2018-12-05T23:42:49.123Z,11.93
2018-12-05T23:48:25.920Z,12.50
2018-12-05T23:50:53.860Z,14.60
2018-12-05T23:53:21.742Z,14.77
2018-12-05T23:55:49.636Z,12.03
2018-12-05T23:58:18.016Z,12.20
